Time;durP1;ratioP1;P1;durP2;ratioP2;P2;SDS_P1;SDS_P2;PMS_P1;PMS_P2;Temp;Humidity;BMP_temperature;BMP_pressure;BME280_temperature;BME280_humidity;BME280_pressure;Samples;Min_cycle;Max_cycle;Signal;HPM_P1;HPM_P2
2021/12/17 00:04:38;;;;;;;1.20;1.10;;;;;;;2.73;87.31;98717.34;5060697;28;20121;-58
2021/12/17 00:07:06;;;;;;;1.50;1.40;;;;;;;2.45;87.11;98671.47;5060670;28;20043;-58
2021/12/17 00:09:32;;;;;;;1.67;1.58;;;;;;;2.81;87.03;98737.72;5060407;28;20036;-58
2021/12/17 00:11:58;;;;;;;1.42;1.30;;;;;;;2.80;87.17;98729.22;5058950;28;20036;-57
2021/12/17 00:14:29;;;;;;;1.67;1.52;;;;;;;2.72;87.77;98724.16;5058943;28;20257;-57
2021/12/17 00:16:58;;;;;;;1.30;1.20;;;;;;;2.67;87.53;98709.72;5058720;28;20043;-57
2021/12/17 00:19:46;;;;;;;2.05;1.52;;;;;;;2.81;87.21;98725.81;5048133;28;20040;-57
2021/12/17 00:46:33;;;;;;;2.00;1.85;;;;;;;2.63;86.92;98752.31;5013606;28;20037;-57
2021/12/17 00:52:39;;;;;;;2.15;1.95;;;;;;;2.56;87.23;98768.53;4999448;28;20057;-57
2021/12/17 00:55:07;;;;;;;3.00;2.35;;;;;;;2.54;87.54;98760.03;5024519;28;20055;-57
2021/12/17 00:57:40;;;;;;;3.33;3.03;;;;;;;2.59;87.71;98763.41;5025536;28;20037;-58
2021/12/17 01:00:13;;;;;;;3.17;2.83;;;;;;;2.67;87.74;98778.72;5024823;28;20052;-59
2021/12/17 01:02:39;;;;;;;3.22;2.95;;;;;;;2.57;87.84;98760.00;5025132;28;20059;-59
2021/12/17 01:05:10;;;;;;;3.33;2.95;;;;;;;2.62;88.02;98770.22;5024085;28;20410;-59
2021/12/17 01:07:40;;;;;;;3.55;3.00;;;;;;;2.53;87.78;98764.28;5023649;28;20064;-59
2021/12/17 01:10:10;;;;;;;3.20;2.58;;;;;;;2.45;87.35;98768.56;5021085;28;20033;-56
2021/12/17 01:12:36;;;;;;;3.13;2.60;;;;;;;2.44;87.63;98774.56;5021680;28;20240;-56
2021/12/17 01:15:05;;;;;;;4.70;2.97;;;;;;;2.35;87.77;98756.69;5022632;28;20034;-58
2021/12/17 01:17:32;;;;;;;3.58;2.70;;;;;;;2.36;87.80;98766.06;5023363;28;20037;-56
2021/12/17 01:22:58;;;;;;;3.85;3.05;;;;;;;2.48;87.86;98781.34;5023731;28;20273;-57
2021/12/17 01:25:46;;;;;;;5.32;3.30;;;;;;;2.13;88.16;98736.31;5024268;28;20041;-57
2021/12/17 01:36:22;;;;;;;4.75;3.60;;;;;;;2.51;87.52;98788.13;5023962;28;20525;-58
2021/12/17 01:44:12;;;;;;;4.78;3.88;;;;;;;2.41;88.11;98793.28;5063108;28;20147;-57
2021/12/17 01:46:38;;;;;;;4.95;3.60;;;;;;;2.48;88.31;98789.03;5062702;28;20036;-56
2021/12/17 02:00:06;;;;;;;6.93;4.00;;;;;;;2.54;87.99;98783.03;5063380;28;20036;-58
2021/12/17 02:02:41;;;;;;;6.93;4.03;;;;;;;2.59;87.69;98804.28;5062814;28;20341;-58
2021/12/17 02:05:08;;;;;;;5.22;4.40;;;;;;;2.53;88.06;98800.06;5042121;28;20036;-58
2021/12/17 02:07:34;;;;;;;8.20;4.75;;;;;;;2.54;88.20;98790.69;5062721;28;20064;-58
2021/12/17 02:31:58;;;;;;;3.85;3.45;;;;;;;2.57;87.32;98801.75;5059051;28;20058;-57
2021/12/17 02:34:43;;;;;;;6.28;5.63;;;;;;;2.50;87.35;98794.97;5061130;28;20036;-58
2021/12/17 02:37:12;;;;;;;5.50;3.72;;;;;;;2.58;87.86;98797.50;5041642;28;20046;-57
2021/12/17 02:40:11;;;;;;;4.28;3.88;;;;;;;2.63;87.82;98805.16;5057756;28;20033;-56
2021/12/17 02:45:32;;;;;;;3.83;3.45;;;;;;;2.63;87.20;98800.88;5022650;28;20048;-58
2021/12/17 02:48:19;;;;;;;4.35;3.83;;;;;;;2.64;87.24;98814.53;5022870;28;20045;-57
2021/12/17 02:50:51;;;;;;;5.30;3.97;;;;;;;2.57;87.30;98814.53;5012163;28;20242;-57
2021/12/17 02:53:18;;;;;;;4.90;4.05;;;;;;;2.23;87.38;98750.75;5022614;28;20359;-57
2021/12/17 02:55:49;;;;;;;5.40;4.50;;;;;;;2.26;86.91;98767.78;5022261;28;20034;-57
2021/12/17 02:58:15;;;;;;;6.00;4.23;;;;;;;2.52;87.50;98817.94;5022887;28;20037;-57
2021/12/17 03:00:43;;;;;;;6.38;4.93;;;;;;;2.48;87.26;98809.47;5023145;28;20053;-56
2021/12/17 03:03:11;;;;;;;7.25;4.40;;;;;;;2.57;87.62;98822.19;5037181;28;20025;-56
2021/12/17 03:05:39;;;;;;;6.78;5.15;;;;;;;2.49;87.37;98794.97;5021931;28;20243;-58
2021/12/17 03:08:07;;;;;;;6.95;4.97;;;;;;;2.49;87.50;98815.41;5021725;28;20048;-58
2021/12/17 03:10:33;;;;;;;6.20;5.30;;;;;;;2.47;87.73;98809.47;5022636;28;20029;-58
2021/12/17 03:13:02;;;;;;;7.32;4.95;;;;;;;2.54;87.49;98813.69;5022348;28;20037;-58
2021/12/17 03:23:31;;;;;;;6.10;4.55;;;;;;;2.53;87.32;98817.94;5021950;28;20437;-57
2021/12/17 03:25:59;;;;;;;6.57;4.45;;;;;;;2.41;87.32;98787.34;5007991;28;20092;-58
2021/12/17 03:28:25;;;;;;;7.05;4.88;;;;;;;2.54;86.62;98814.53;5022583;28;20092;-57
2021/12/17 03:30:51;;;;;;;5.55;4.45;;;;;;;2.44;86.98;98819.66;5021700;28;20040;-58
2021/12/17 03:33:17;;;;;;;5.18;4.32;;;;;;;2.54;87.11;98817.09;5022390;28;20029;-57
2021/12/17 03:35:42;;;;;;;6.38;4.55;;;;;;;2.38;87.15;98818.84;5022134;28;20041;-59
2021/12/17 03:38:08;;;;;;;5.85;4.25;;;;;;;2.41;86.62;98818.00;5021855;28;20033;-58
2021/12/17 03:40:34;;;;;;;5.45;4.13;;;;;;;2.49;86.60;98817.97;5019285;28;20036;-59
2021/12/17 03:43:03;;;;;;;5.93;4.95;;;;;;;2.44;86.55;98819.66;5026298;28;20041;-57
2021/12/17 03:45:29;;;;;;;4.97;4.18;;;;;;;2.50;86.15;98817.97;5021409;28;20041;-58
2021/12/17 03:47:55;;;;;;;5.40;4.18;;;;;;;2.40;86.54;98818.84;5021670;28;20038;-57
2021/12/17 03:50:21;;;;;;;4.50;3.90;;;;;;;2.44;85.92;98825.66;5021790;28;20049;-57
2021/12/17 03:52:47;;;;;;;5.70;3.95;;;;;;;2.35;85.66;98820.56;5009854;28;20087;-56
2021/12/17 03:55:13;;;;;;;5.40;3.78;;;;;;;2.47;85.64;98822.25;5021980;28;20037;-58
2021/12/17 03:57:38;;;;;;;4.47;4.07;;;;;;;2.47;86.05;98820.53;5021073;28;20057;-58
2021/12/17 04:00:32;;;;;;;6.00;3.90;;;;;;;2.44;85.23;98815.44;5021636;28;20412;-58
2021/12/17 04:02:58;;;;;;;7.05;3.88;;;;;;;2.44;85.63;98809.44;5020594;28;20265;-57
2021/12/17 04:05:24;;;;;;;4.50;3.65;;;;;;;2.32;84.80;98815.44;5021741;28;20033;-57
2021/12/17 04:07:49;;;;;;;4.03;3.55;;;;;;;2.17;84.24;98801.88;5020927;28;20514;-57
2021/12/17 04:10:17;;;;;;;4.18;3.53;;;;;;;2.35;84.48;98818.00;5020626;28;20382;-58
2021/12/17 04:12:56;;;;;;;5.78;3.85;;;;;;;2.33;83.94;98812.88;5019872;28;20348;-57
2021/12/17 04:15:34;;;;;;;6.93;4.10;;;;;;;2.30;83.79;98815.47;5021119;28;20041;-58
2021/12/17 04:18:04;;;;;;;7.38;3.20;;;;;;;2.18;83.84;98806.13;5021432;28;20071;-58
2021/12/17 04:20:30;;;;;;;8.95;4.53;;;;;;;2.19;83.63;98820.56;5022140;28;20111;-56
2021/12/17 04:22:55;;;;;;;7.68;3.75;;;;;;;2.17;83.22;98837.63;5021565;28;20380;-57
2021/12/17 04:25:22;;;;;;;8.05;4.05;;;;;;;2.20;84.00;98832.50;5020959;28;20049;-57
2021/12/17 04:27:47;;;;;;;7.88;3.97;;;;;;;2.26;83.90;98841.84;5020482;28;20106;-58
2021/12/17 04:30:13;;;;;;;5.38;3.85;;;;;;;2.20;83.62;98840.16;5009422;28;20349;-58
2021/12/17 04:32:39;;;;;;;6.63;3.35;;;;;;;2.14;82.97;98841.88;5009013;28;20040;-58
2021/12/17 04:35:05;;;;;;;6.38;3.13;;;;;;;2.15;83.47;98853.78;5018999;28;20046;-58
2021/12/17 04:37:30;;;;;;;5.90;3.05;;;;;;;2.19;82.83;98858.06;5019546;28;20022;-57
2021/12/17 04:39:56;;;;;;;4.90;3.28;;;;;;;2.23;82.56;98860.59;5020486;28;20037;-58
2021/12/17 04:45:10;;;;;;;4.78;2.90;;;;;;;2.16;83.13;98851.22;5025603;28;20324;-57
2021/12/17 04:58:33;;;;;;;6.80;3.20;;;;;;;2.13;83.37;98864.00;5059408;28;20081;-57
2021/12/17 05:01:02;;;;;;;5.68;2.90;;;;;;;2.14;83.18;98863.16;5060526;28;20113;-57
2021/12/17 05:03:28;;;;;;;5.20;2.80;;;;;;;2.20;83.03;98870.81;5059426;28;20024;-56
2021/12/17 05:05:53;;;;;;;9.00;2.90;;;;;;;2.20;83.24;98872.53;5060691;28;20381;-56
2021/12/17 05:08:22;;;;;;;7.05;3.00;;;;;;;2.27;83.05;98881.00;5063413;28;20025;-56
2021/12/17 05:19:05;;;;;;;7.10;4.50;;;;;;;2.13;83.83;98886.16;5058885;28;20033;-56
2021/12/17 05:21:30;;;;;;;3.53;2.15;;;;;;;2.14;84.30;98878.50;5062526;28;20293;-58
2021/12/17 05:23:56;;;;;;;5.35;2.90;;;;;;;2.16;84.50;98887.00;5057834;28;20048;-57
2021/12/17 05:26:22;;;;;;;2.83;2.30;;;;;;;2.27;84.70;98891.22;5061990;28;20048;-57
2021/12/17 05:28:49;;;;;;;4.88;2.28;;;;;;;2.27;84.75;98889.56;5062372;28;20044;-58
2021/12/17 05:31:16;;;;;;;3.75;2.67;;;;;;;2.28;84.84;98888.72;5062661;28;20127;-58
2021/12/17 05:33:42;;;;;;;3.60;2.20;;;;;;;2.22;84.24;98887.00;5063533;28;20078;-57
2021/12/17 05:36:08;;;;;;;5.05;2.75;;;;;;;2.27;84.83;98893.78;5063101;28;20323;-57
2021/12/17 05:38:34;;;;;;;5.00;2.60;;;;;;;2.21;84.40;98903.19;5044926;28;20040;-57
2021/12/17 05:40:59;;;;;;;3.63;2.35;;;;;;;2.20;85.11;98893.81;5061118;28;20048;-59
2021/12/17 05:43:25;;;;;;;5.13;2.47;;;;;;;2.19;84.88;98907.41;5022786;28;20052;-59
2021/12/17 05:48:24;;;;;;;3.88;2.58;;;;;;;2.15;84.87;98910.84;5023806;28;20550;-58
2021/12/17 05:50:55;;;;;;;3.65;2.38;;;;;;;1.77;84.67;98836.78;5022531;28;20029;-59
2021/12/17 05:53:22;;;;;;;5.43;2.17;;;;;;;2.23;84.03;98909.13;5023106;28;20046;-58
2021/12/17 05:55:48;;;;;;;6.07;2.45;;;;;;;1.98;83.27;98915.06;5023326;28;20049;-57
2021/12/17 05:58:13;;;;;;;4.25;2.30;;;;;;;2.12;83.44;98923.59;5023363;28;20596;-57
2021/12/17 06:00:41;;;;;;;3.05;1.73;;;;;;;2.14;83.07;98923.59;5023345;28;20048;-57
2021/12/17 06:03:07;;;;;;;2.47;1.90;;;;;;;2.14;82.41;98929.56;5022004;28;20044;-56
2021/12/17 06:05:33;;;;;;;1.77;1.60;;;;;;;2.16;82.55;98930.41;5022092;28;20038;-59
2021/12/17 06:07:59;;;;;;;1.98;1.42;;;;;;;2.02;81.67;98920.22;5022557;28;20080;-58
2021/12/17 06:10:25;;;;;;;1.85;1.60;;;;;;;2.23;82.25;98934.66;5021483;28;20037;-57
2021/12/17 06:12:51;;;;;;;2.67;2.25;;;;;;;2.27;82.18;98950.84;5021062;28;20350;-58
2021/12/17 06:15:20;;;;;;;4.72;2.08;;;;;;;1.84;82.16;98886.97;5023582;28;20041;-57
2021/12/17 06:17:46;;;;;;;3.05;2.13;;;;;;;2.20;82.36;98942.34;5023109;28;20914;-58
2021/12/17 06:20:14;;;;;;;4.30;2.40;;;;;;;2.17;82.20;98952.56;5022398;28;20033;-58
2021/12/17 06:22:41;;;;;;;2.80;2.30;;;;;;;2.21;82.47;98954.25;5022097;28;20301;-57
2021/12/17 06:25:08;;;;;;;3.75;2.10;;;;;;;2.21;81.95;98954.25;5023759;28;20048;-58
2021/12/17 06:27:35;;;;;;;3.75;2.30;;;;;;;2.12;80.99;98958.50;5022902;28;20037;-57
2021/12/17 06:30:02;;;;;;;4.28;2.20;;;;;;;2.22;81.48;98961.09;5023328;28;20034;-57
2021/12/17 06:32:28;;;;;;;3.17;2.03;;;;;;;2.26;81.60;98963.63;5023311;28;20037;-57
2021/12/17 06:34:54;;;;;;;5.40;2.45;;;;;;;2.28;81.50;98973.00;5022399;28;20087;-57
2021/12/17 06:37:20;;;;;;;4.63;2.65;;;;;;;2.16;81.08;98971.28;5022826;28;20030;-56
2021/12/17 06:39:47;;;;;;;4.40;2.63;;;;;;;2.18;81.84;98976.38;5022941;28;20439;-58
2021/12/17 06:42:14;;;;;;;4.20;2.92;;;;;;;2.32;81.70;98976.41;5022737;28;20087;-58
2021/12/17 06:44:41;;;;;;;6.25;3.17;;;;;;;2.33;81.65;98966.19;5022361;28;20529;-58
2021/12/17 06:47:30;;;;;;;5.07;2.55;;;;;;;2.34;82.30;98964.50;5021976;28;20097;-56
2021/12/17 06:54:37;;;;;;;5.30;2.92;;;;;;;2.37;81.94;98974.72;5010272;28;20052;-58
2021/12/17 07:01:05;;;;;;;3.53;2.42;;;;;;;2.38;81.47;98973.84;5022893;28;20083;-58
2021/12/17 07:24:52;;;;;;;6.05;2.05;;;;;;;2.46;79.47;98987.47;5019615;28;20025;-58
2021/12/17 07:35:45;;;;;;;3.83;2.88;;;;;;;2.65;79.86;99003.66;5020597;28;20049;-59
2021/12/17 07:40:57;;;;;;;6.40;2.80;;;;;;;2.74;79.36;99010.47;5012387;28;20057;-59
2021/12/17 07:43:27;;;;;;;3.13;2.80;;;;;;;2.77;79.39;99015.59;5061162;28;20294;-59
2021/12/17 07:45:54;;;;;;;6.57;3.50;;;;;;;2.73;80.21;99035.16;5039211;28;20061;-58
2021/12/17 07:48:21;;;;;;;6.22;2.85;;;;;;;2.76;79.54;99022.41;5062153;28;20021;-58
2021/12/17 07:50:47;;;;;;;8.95;3.53;;;;;;;2.80;79.96;99015.56;5060218;28;20203;-59
2021/12/17 07:53:13;;;;;;;6.65;3.25;;;;;;;2.81;79.86;99018.97;5058655;28;20347;-59
2021/12/17 07:55:39;;;;;;;6.18;3.47;;;;;;;2.82;79.78;99023.25;5060145;28;20389;-58
2021/12/17 07:58:05;;;;;;;8.13;3.65;;;;;;;2.75;79.67;99036.03;5058098;28;20040;-59
2021/12/17 08:00:31;;;;;;;9.15;3.90;;;;;;;2.72;79.78;99035.19;5058905;28;20351;-59
2021/12/17 08:02:56;;;;;;;10.70;4.70;;;;;;;2.71;80.43;99034.34;5059749;28;20032;-59
2021/12/17 08:05:22;;;;;;;5.75;3.85;;;;;;;2.68;80.17;99039.44;5059214;28;20036;-58
2021/12/17 08:07:47;;;;;;;8.00;3.97;;;;;;;2.74;80.39;99036.03;5041639;28;20033;-58
2021/12/17 08:10:13;;;;;;;8.93;3.88;;;;;;;2.75;79.72;99036.03;5060084;28;20033;-58
2021/12/17 08:12:39;;;;;;;4.05;3.15;;;;;;;2.75;80.42;99040.28;5059784;28;20198;-59
2021/12/17 08:15:08;;;;;;;5.50;3.55;;;;;;;2.71;80.80;99034.34;5060007;28;20044;-60
2021/12/17 08:25:49;;;;;;;7.38;4.22;;;;;;;2.62;80.92;99029.22;5039376;28;20425;-56
2021/12/17 08:28:16;;;;;;;6.30;4.00;;;;;;;2.62;80.54;99036.03;5059057;28;20036;-58
2021/12/17 08:30:42;;;;;;;9.15;4.13;;;;;;;2.63;80.69;99030.09;5057940;28;20359;-60
2021/12/17 08:33:08;;;;;;;5.25;3.75;;;;;;;2.79;80.54;99036.03;5058113;28;20113;-61
2021/12/17 08:35:35;;;;;;;6.07;4.15;;;;;;;2.68;81.36;99023.25;5059249;28;20379;-58
2021/12/17 08:38:04;;;;;;;11.75;4.28;;;;;;;2.79;80.15;99044.53;5060441;28;20041;-59
2021/12/17 08:40:30;;;;;;;5.88;3.22;;;;;;;2.90;80.37;99044.56;5060512;28;20104;-59
2021/12/17 08:42:56;;;;;;;6.28;3.75;;;;;;;2.89;79.57;99033.47;5043259;28;20072;-59
2021/12/17 08:45:22;;;;;;;6.72;3.90;;;;;;;2.85;79.91;99036.03;5063905;28;20024;-58
2021/12/17 08:47:49;;;;;;;8.00;3.35;;;;;;;2.93;79.50;99049.66;5063527;28;20029;-59
2021/12/17 08:50:15;;;;;;;4.95;3.72;;;;;;;2.90;78.79;99047.09;5062484;28;20349;-59
2021/12/17 08:52:41;;;;;;;4.45;3.00;;;;;;;2.91;78.79;99052.22;5064526;28;20051;-59
2021/12/17 08:55:07;;;;;;;10.68;3.78;;;;;;;2.89;79.02;99064.16;5063108;28;20033;-59
2021/12/17 08:57:33;;;;;;;5.15;3.53;;;;;;;2.78;79.27;99037.75;5063177;28;20459;-57
2021/12/17 09:00:04;;;;;;;5.40;3.40;;;;;;;2.85;79.67;99048.81;5063366;28;20044;-59
2021/12/17 09:02:30;;;;;;;4.18;2.63;;;;;;;2.86;78.81;99045.41;5063518;28;20353;-59
2021/12/17 09:04:56;;;;;;;4.93;3.33;;;;;;;2.85;78.40;99046.25;5063013;28;20037;-59
2021/12/17 09:07:21;;;;;;;4.40;2.78;;;;;;;2.84;78.46;99040.28;5041570;28;20032;-58
2021/12/17 09:09:48;;;;;;;3.50;2.90;;;;;;;2.66;78.79;99037.75;5063812;28;20751;-58
2021/12/17 09:12:14;;;;;;;6.70;3.22;;;;;;;2.83;78.71;99048.81;5063288;28;20044;-59
2021/12/17 09:14:39;;;;;;;4.55;2.70;;;;;;;2.84;78.16;99042.84;5063436;28;20083;-58
2021/12/17 09:17:05;;;;;;;6.05;3.47;;;;;;;2.86;78.59;99043.69;5062449;28;20304;-59
2021/12/17 09:19:31;;;;;;;8.50;3.20;;;;;;;2.92;78.50;99036.03;5063594;28;20175;-59
2021/12/17 09:21:57;;;;;;;6.82;3.90;;;;;;;2.97;77.96;99047.97;5062758;28;20029;-59
2021/12/17 09:24:23;;;;;;;5.18;3.15;;;;;;;2.97;78.31;99055.63;5063371;28;20333;-59
2021/12/17 09:26:49;;;;;;;7.57;3.83;;;;;;;2.98;78.96;99057.31;5062391;28;20106;-59
2021/12/17 09:29:14;;;;;;;3.67;2.92;;;;;;;3.00;79.32;99055.63;5062244;28;20051;-59
2021/12/17 09:31:41;;;;;;;5.50;3.38;;;;;;;3.06;79.68;99056.44;5062785;28;20040;-59
2021/12/17 09:34:06;;;;;;;4.38;2.95;;;;;;;3.01;79.54;99058.19;5061212;28;20032;-59
2021/12/17 09:36:33;;;;;;;3.92;2.70;;;;;;;2.92;79.43;99040.28;5062971;28;20029;-58
2021/12/17 09:38:59;;;;;;;4.63;2.88;;;;;;;3.01;79.64;99054.78;5061054;28;20040;-59
2021/12/17 09:41:26;;;;;;;3.90;2.95;;;;;;;2.99;79.58;99041.13;5061411;28;20063;-59
2021/12/17 09:43:53;;;;;;;3.78;2.90;;;;;;;3.04;79.81;99054.78;5060426;28;20025;-59
2021/12/17 09:46:19;;;;;;;4.85;3.10;;;;;;;3.13;79.14;99057.31;5060279;28;20250;-58
2021/12/17 09:48:46;;;;;;;3.40;3.10;;;;;;;3.04;78.61;99047.09;5060596;28;20032;-59
2021/12/17 09:51:14;;;;;;;4.80;3.15;;;;;;;3.16;79.22;99057.28;5061543;28;20028;-59
2021/12/17 09:53:41;;;;;;;4.53;2.95;;;;;;;3.05;78.56;99059.88;5062379;28;20037;-59
2021/12/17 09:56:07;;;;;;;4.63;2.95;;;;;;;3.15;78.85;99054.75;5061327;28;20144;-59
2021/12/17 09:58:33;;;;;;;5.35;3.20;;;;;;;3.08;78.50;99062.44;5058490;28;20583;-59
2021/12/17 10:00:59;;;;;;;5.68;3.50;;;;;;;3.15;78.31;99055.63;5061730;28;20099;-59
2021/12/17 10:03:26;;;;;;;5.13;3.13;;;;;;;2.83;77.44;99020.69;5060953;28;20048;-59
2021/12/17 10:05:52;;;;;;;5.80;3.60;;;;;;;3.08;76.89;99076.94;5060637;28;20138;-59
2021/12/17 10:08:21;;;;;;;5.15;3.65;;;;;;;2.83;77.64;99007.91;5058455;28;20506;-59
2021/12/17 10:10:49;;;;;;;5.30;3.10;;;;;;;2.78;78.15;99008.75;5061743;28;20065;-59
2021/12/17 10:13:20;;;;;;;3.83;3.30;;;;;;;2.94;78.04;99062.44;5062541;28;20099;-59
2021/12/17 10:15:49;;;;;;;5.15;3.03;;;;;;;2.96;77.86;99044.53;5060700;28;20048;-60
2021/12/17 10:18:17;;;;;;;5.40;3.30;;;;;;;2.99;77.00;99052.19;5062398;28;20150;-59
2021/12/17 10:20:51;;;;;;;10.55;4.20;;;;;;;3.02;77.16;99053.91;5060347;28;20052;-59
2021/12/17 10:23:20;;;;;;;4.75;3.03;;;;;;;3.11;76.23;99044.53;5047145;28;20036;-59
2021/12/17 10:25:45;;;;;;;5.15;3.38;;;;;;;3.10;76.20;99060.72;5059860;28;20067;-59
2021/12/17 10:28:12;;;;;;;6.00;3.33;;;;;;;3.12;76.55;99060.72;5060602;28;20086;-60
2021/12/17 10:30:41;;;;;;;6.03;3.20;;;;;;;3.15;76.27;99070.09;5058333;28;20055;-62
2021/12/17 10:33:09;;;;;;;8.48;3.40;;;;;;;3.10;75.79;99039.41;5061314;28;20409;-62
2021/12/17 10:35:45;;;;;;;4.90;3.05;;;;;;;2.91;74.80;99020.69;5059585;28;20033;-59
2021/12/17 10:38:14;;;;;;;4.20;3.05;;;;;;;3.24;75.76;99067.53;5062522;28;20036;-60
2021/12/17 10:40:58;;;;;;;6.43;3.00;;;;;;;3.25;75.49;99088.00;5059635;28;20653;-60
2021/12/17 10:46:05;;;;;;;5.55;2.70;;;;;;;2.93;75.06;99040.28;5061156;28;20123;-59
2021/12/17 10:51:46;;;;;;;3.28;2.70;;;;;;;2.91;74.59;99097.41;5058888;28;20036;-58
2021/12/17 10:54:14;;;;;;;2.85;2.22;;;;;;;2.94;74.24;99092.28;5060782;28;20032;-59
2021/12/17 10:56:46;;;;;;;6.38;2.58;;;;;;;2.98;74.66;99095.69;5060086;28;20143;-59
2021/12/17 10:59:18;;;;;;;1.52;1.42;;;;;;;2.63;72.68;99066.72;5060721;28;20063;-58
2021/12/17 11:01:50;;;;;;;1.85;1.50;;;;;;;2.48;71.32;99038.56;5057216;28;20076;-61
2021/12/17 11:04:23;;;;;;;1.20;1.10;;;;;;;2.74;71.31;99116.13;5058320;28;20115;-60
2021/12/17 11:06:53;;;;;;;1.48;1.08;;;;;;;2.83;71.88;99105.06;5060059;28;20119;-61
2021/12/17 11:09:56;;;;;;;3.65;1.50;;;;;;;2.81;70.40;99108.47;5059553;28;20100;-59
2021/12/17 11:12:38;;;;;;;1.63;1.13;;;;;;;2.86;72.53;99112.72;5055162;28;20067;-61
2021/12/17 11:15:24;;;;;;;1.60;1.17;;;;;;;2.73;71.42;99106.75;5061010;28;20506;-59
2021/12/17 11:17:55;;;;;;;1.50;1.23;;;;;;;2.27;71.72;99063.25;5060271;28;20243;-59
2021/12/17 11:20:25;;;;;;;2.03;1.40;;;;;;;2.63;73.13;99107.59;5060534;28;20081;-61
2021/12/17 11:22:52;;;;;;;1.70;1.60;;;;;;;2.76;72.94;99128.91;5060493;28;20322;-60
2021/12/17 11:25:20;;;;;;;3.17;1.60;;;;;;;2.84;72.13;99137.47;5058880;28;20328;-59
2021/12/17 11:27:46;;;;;;;1.83;1.50;;;;;;;2.83;72.42;99137.47;5057731;28;20037;-61
2021/12/17 11:30:21;;;;;;;2.15;1.73;;;;;;;2.83;72.25;99140.84;5058774;28;20517;-60
2021/12/17 11:32:49;;;;;;;1.55;1.38;;;;;;;2.67;71.03;99150.22;5059448;28;20582;-60
2021/12/17 11:35:16;;;;;;;2.17;1.60;;;;;;;2.52;72.16;99083.72;5058616;28;20060;-60
2021/12/17 11:37:44;;;;;;;2.05;1.50;;;;;;;2.54;72.57;99082.06;5059119;28;20075;-58
2021/12/17 11:40:19;;;;;;;1.42;1.33;;;;;;;2.92;71.89;99138.31;5060242;28;20049;-61
2021/12/17 11:43:10;;;;;;;1.55;1.45;;;;;;;2.98;73.07;99131.50;5059922;28;20051;-59
2021/12/17 11:45:36;;;;;;;3.78;1.50;;;;;;;2.86;72.37;99143.41;5058072;28;20303;-60
2021/12/17 11:48:18;;;;;;;1.65;1.55;;;;;;;2.84;71.53;99150.25;5057354;28;20074;-60
2021/12/17 11:50:45;;;;;;;;;;;;;;;2.85;71.46;99143.41;5060774;28;20115;-59
2021/12/17 11:53:22;;;;;;;1.70;1.60;;;;;;;2.80;70.84;99140.03;5059083;28;19952;-60
2021/12/17 11:55:56;;;;;;;2.97;1.40;;;;;;;2.55;72.65;99091.41;5058983;28;20045;-60
2021/12/17 11:58:42;;;;;;;1.58;1.33;;;;;;;2.86;71.80;99140.03;5059583;28;20100;-60
2021/12/17 12:01:07;;;;;;;2.35;1.20;;;;;;;2.87;71.75;99147.69;5046900;28;20043;-60
2021/12/17 12:03:33;;;;;;;2.28;1.50;;;;;;;2.94;71.57;99154.50;5059959;28;20151;-59
2021/12/17 12:06:02;;;;;;;2.53;1.88;;;;;;;2.86;72.78;99145.97;5047124;28;20024;-59
2021/12/17 12:08:49;;;;;;;1.70;1.35;;;;;;;2.87;72.02;99152.81;5059220;28;20199;-59
2021/12/17 12:11:21;;;;;;;1.48;1.38;;;;;;;2.80;73.04;99179.22;5058770;28;20245;-60
2021/12/17 12:13:49;;;;;;;1.67;1.58;;;;;;;2.61;72.57;99151.91;5059255;28;20032;-59
2021/12/17 12:16:21;;;;;;;1.75;1.10;;;;;;;2.49;71.27;99142.50;5063874;28;20374;-60
2021/12/17 12:19:07;;;;;;;2.35;1.20;;;;;;;2.43;72.16;99153.56;5063916;28;20364;-60
2021/12/17 12:21:37;;;;;;;1.55;1.00;;;;;;;2.59;72.38;99174.91;5064482;28;20064;-59
2021/12/17 12:24:12;;;;;;;1.75;1.40;;;;;;;2.63;71.15;99165.56;5064991;28;20059;-59
2021/12/17 12:26:42;;;;;;;1.20;1.10;;;;;;;2.27;71.31;99106.69;5049821;28;20033;-60
2021/12/17 12:29:10;;;;;;;2.88;1.30;;;;;;;2.66;71.34;99178.34;5063159;28;20041;-60
2021/12/17 12:31:37;;;;;;;1.20;1.10;;;;;;;2.58;71.05;99166.41;5064338;28;20099;-60
2021/12/17 12:37:09;;;;;;;1.50;1.30;;;;;;;2.63;72.11;99166.41;5063815;28;20113;-59
2021/12/17 12:39:38;;;;;;;1.75;1.55;;;;;;;2.67;71.80;99178.34;5033013;28;20045;-59
2021/12/17 12:42:11;;;;;;;1.83;1.20;;;;;;;2.76;72.17;99178.38;5064827;28;20048;-59
2021/12/17 12:44:49;;;;;;;2.28;1.50;;;;;;;2.63;71.20;99188.56;5063249;28;20049;-59
2021/12/17 12:47:20;;;;;;;1.63;1.25;;;;;;;2.57;72.00;99186.84;5063860;28;20059;-60
2021/12/17 12:49:52;;;;;;;1.20;1.10;;;;;;;2.52;70.71;99168.06;5063792;28;20340;-59
2021/12/17 12:52:25;;;;;;;2.15;1.30;;;;;;;2.60;71.66;99186.84;5062215;28;20402;-59
2021/12/17 12:54:53;;;;;;;4.85;1.80;;;;;;;2.58;72.99;99188.56;5063823;28;20092;-59
2021/12/17 12:57:25;;;;;;;2.83;1.50;;;;;;;2.52;72.18;99188.53;5050308;28;20058;-58
2021/12/17 12:59:53;;;;;;;4.07;1.40;;;;;;;2.55;72.35;99198.75;5064029;28;20029;-59
2021/12/17 13:02:20;;;;;;;1.75;1.30;;;;;;;2.50;71.39;99180.84;5063869;28;20032;-59
2021/12/17 13:04:46;;;;;;;1.48;1.38;;;;;;;2.53;72.77;99173.19;5062971;28;20105;-60
2021/12/17 13:07:14;;;;;;;2.08;1.40;;;;;;;2.23;71.93;99113.47;5063756;28;20111;-60
2021/12/17 13:09:43;;;;;;;4.57;2.70;;;;;;;2.56;72.09;99182.56;5063446;28;20135;-60
2021/12/17 13:12:10;;;;;;;2.72;1.75;;;;;;;2.44;71.95;99188.50;5062756;28;20043;-59
2021/12/17 13:14:45;;;;;;;4.47;2.03;;;;;;;2.17;72.38;99133.91;5062442;28;20044;-60
2021/12/17 13:22:55;;;;;;;3.50;2.40;;;;;;;2.26;73.64;99140.75;5062245;28;20033;-60
2021/12/17 13:25:26;;;;;;;3.63;2.80;;;;;;;2.63;73.73;99214.13;5062157;28;20250;-59
2021/12/17 13:27:55;;;;;;;3.70;2.58;;;;;;;2.66;74.25;99203.91;5060319;28;20221;-59
2021/12/17 13:30:25;;;;;;;4.00;2.40;;;;;;;2.57;73.99;99212.41;5046952;28;20078;-59
2021/12/17 13:32:52;;;;;;;2.55;2.33;;;;;;;2.65;74.13;99212.41;5061264;28;20269;-58
2021/12/17 13:35:19;;;;;;;3.08;2.63;;;;;;;2.64;74.83;99210.72;5060556;28;20040;-59
2021/12/17 13:37:45;;;;;;;5.40;2.70;;;;;;;2.67;74.75;99216.69;5058716;28;20036;-59
2021/12/17 13:40:12;;;;;;;2.45;2.05;;;;;;;2.29;75.08;99162.91;5047969;28;20041;-59
2021/12/17 13:42:48;;;;;;;6.47;3.95;;;;;;;2.57;76.35;99222.63;5046667;28;20227;-59
2021/12/17 13:45:19;;;;;;;6.28;2.97;;;;;;;2.46;78.15;99207.25;5061637;28;20094;-59
2021/12/17 13:47:46;;;;;;;2.97;2.40;;;;;;;2.46;78.56;99229.41;5058823;28;20078;-59
2021/12/17 13:50:20;;;;;;;4.05;2.78;;;;;;;2.41;78.42;99243.00;5046151;28;20119;-58
2021/12/17 13:52:49;;;;;;;3.22;2.90;;;;;;;2.41;79.23;99235.34;5061714;28;20822;-60
2021/12/17 13:55:20;;;;;;;3.60;2.90;;;;;;;2.31;79.07;99227.63;5047629;28;20032;-60
2021/12/17 13:57:46;;;;;;;5.83;3.20;;;;;;;2.34;78.96;99243.81;5047478;28;20099;-59
2021/12/17 14:00:21;;;;;;;5.50;3.45;;;;;;;2.25;78.49;99218.22;5062002;28;20092;-59
2021/12/17 14:02:48;;;;;;;4.50;3.45;;;;;;;2.05;78.84;99187.47;5061028;28;20036;-60
2021/12/17 14:05:25;;;;;;;3.63;3.03;;;;;;;2.27;79.03;99231.00;5061570;28;20036;-59
2021/12/17 14:07:54;;;;;;;6.10;3.60;;;;;;;2.37;78.34;99266.00;5061009;28;20364;-59
2021/12/17 14:10:32;;;;;;;4.85;2.75;;;;;;;1.99;77.85;99200.22;5061298;28;20040;-59
2021/12/17 14:12:59;;;;;;;4.45;2.83;;;;;;;1.95;76.23;99203.59;5050970;28;20225;-60
2021/12/17 14:15:28;;;;;;;4.25;2.90;;;;;;;2.15;76.97;99239.47;5060307;28;20096;-59
2021/12/17 14:18:00;;;;;;;4.57;3.00;;;;;;;2.25;76.24;99259.09;5046003;28;20035;-59
2021/12/17 14:20:36;;;;;;;4.60;3.72;;;;;;;2.23;76.61;99260.81;5061519;28;20087;-59
2021/12/17 14:23:08;;;;;;;3.25;2.05;;;;;;;2.03;74.98;99233.44;5061919;28;20036;-58
2021/12/17 14:25:39;;;;;;;4.03;2.17;;;;;;;2.17;74.72;99264.19;5061715;28;20032;-59
2021/12/17 14:28:25;;;;;;;4.00;1.98;;;;;;;2.32;74.58;99276.16;5061092;28;20068;-59
2021/12/17 14:30:58;;;;;;;3.00;2.05;;;;;;;2.34;74.76;99271.09;5061898;28;20134;-59
2021/12/17 14:33:35;;;;;;;3.88;1.77;;;;;;;1.95;74.15;99227.44;5063012;28;20036;-61
2021/12/17 14:36:04;;;;;;;3.03;2.00;;;;;;;2.21;73.91;99277.84;5060636;28;20033;-58
2021/12/17 14:38:42;;;;;;;2.33;1.83;;;;;;;2.25;74.54;99302.53;5061087;28;20039;-58
2021/12/17 14:41:22;;;;;;;2.05;1.85;;;;;;;1.95;74.76;99224.88;5059820;28;20103;-60
2021/12/17 14:44:05;;;;;;;3.05;1.80;;;;;;;2.33;74.92;99302.59;5061036;28;20037;-59
2021/12/17 14:46:54;;;;;;;3.08;1.52;;;;;;;1.95;74.97;99224.88;5061448;28;20114;-58
2021/12/17 15:03:27;;;;;;;3.33;1.83;;;;;;;2.32;73.66;99282.97;5024726;28;20419;-58
2021/12/17 15:05:57;;;;;;;3.30;2.10;;;;;;;1.94;73.79;99232.53;5060340;28;20245;-59